sensor_id;sensor_type;location;lat;lon;timestamp;pressure;altitude;pressure_sealevel;temperature;humidity
23170;BME280;11753;43.144;24.714;2023-05-11T00:01:05;99861.72;;;12.30;87.88
23170;BME280;11753;43.144;24.714;2023-05-11T00:02:05;99864.97;;;12.16;89.17
23170;BME280;11753;43.144;24.714;2023-05-11T00:03:07;99861.72;;;11.78;91.46
23170;BME280;11753;43.144;24.714;2023-05-11T00:04:07;99863.69;;;11.76;92.05
23170;BME280;11753;43.144;24.714;2023-05-11T00:05:08;99862.78;;;11.85;91.86
23170;BME280;11753;43.144;24.714;2023-05-11T00:06:09;99869.09;;;11.92;91.42
23170;BME280;11753;43.144;24.714;2023-05-11T00:07:10;99869.63;;;11.96;91.21
23170;BME280;11753;43.144;24.714;2023-05-11T00:08:11;99867.84;;;12.04;91.20
23170;BME280;11753;43.144;24.714;2023-05-11T00:09:12;99864.56;;;12.02;91.00
23170;BME280;11753;43.144;24.714;2023-05-11T00:10:13;99866.72;;;11.81;92.10
23170;BME280;11753;43.144;24.714;2023-05-11T00:11:14;99868.06;;;11.85;92.17
23170;BME280;11753;43.144;24.714;2023-05-11T00:12:15;99863.53;;;11.77;92.56
23170;BME280;11753;43.144;24.714;2023-05-11T00:13:17;99873.41;;;11.75;92.86
23170;BME280;11753;43.144;24.714;2023-05-11T00:14:18;99873.94;;;11.79;92.87
23170;BME280;11753;43.144;24.714;2023-05-11T00:15:19;99872.06;;;11.89;92.83
23170;BME280;11753;43.144;24.714;2023-05-11T00:16:20;99871.91;;;11.91;92.61
23170;BME280;11753;43.144;24.714;2023-05-11T00:17:22;99870.13;;;11.99;92.49
23170;BME280;11753;43.144;24.714;2023-05-11T00:18:23;99884.63;;;11.95;92.25
23170;BME280;11753;43.144;24.714;2023-05-11T00:19:24;99878.03;;;11.99;91.53
23170;BME280;11753;43.144;24.714;2023-05-11T00:20:25;99872.75;;;11.99;91.49
23170;BME280;11753;43.144;24.714;2023-05-11T00:21:26;99880.69;;;11.99;91.43
23170;BME280;11753;43.144;24.714;2023-05-11T00:22:26;99879.03;;;11.98;91.75
23170;BME280;11753;43.144;24.714;2023-05-11T00:23:27;99878.31;;;11.88;92.37
23170;BME280;11753;43.144;24.714;2023-05-11T00:24:28;99876.34;;;11.90;92.66
23170;BME280;11753;43.144;24.714;2023-05-11T00:25:29;99870.63;;;11.95;92.58
23170;BME280;11753;43.144;24.714;2023-05-11T00:26:30;99879.53;;;11.94;92.36
23170;BME280;11753;43.144;24.714;2023-05-11T00:27:31;99880.69;;;11.99;91.92
23170;BME280;11753;43.144;24.714;2023-05-11T00:28:32;99878.81;;;11.92;92.29
23170;BME280;11753;43.144;24.714;2023-05-11T00:29:33;99874.50;;;11.82;92.54
23170;BME280;11753;43.144;24.714;2023-05-11T00:30:34;99883.09;;;11.67;93.64
23170;BME280;11753;43.144;24.714;2023-05-11T00:31:35;99879.34;;;11.51;95.00
23170;BME280;11753;43.144;24.714;2023-05-11T00:32:36;99875.34;;;11.47;95.05
23170;BME280;11753;43.144;24.714;2023-05-11T00:33:37;99880.63;;;11.47;95.70
23170;BME280;11753;43.144;24.714;2023-05-11T00:34:37;99880.25;;;11.07;99.02
23170;BME280;11753;43.144;24.714;2023-05-11T00:35:38;99877.94;;;11.03;99.48
23170;BME280;11753;43.144;24.714;2023-05-11T00:36:39;99876.56;;;10.99;100.00
23170;BME280;11753;43.144;24.714;2023-05-11T00:37:42;99880.63;;;11.12;99.66
23170;BME280;11753;43.144;24.714;2023-05-11T00:38:43;99879.38;;;11.16;99.35
23170;BME280;11753;43.144;24.714;2023-05-11T00:39:44;99876.50;;;11.09;99.67
23170;BME280;11753;43.144;24.714;2023-05-11T00:40:45;99881.38;;;10.86;100.00
23170;BME280;11753;43.144;24.714;2023-05-11T00:41:46;99881.50;;;10.67;100.00
23170;BME280;11753;43.144;24.714;2023-05-11T00:42:47;99882.81;;;10.53;100.00
23170;BME280;11753;43.144;24.714;2023-05-11T00:43:50;99879.84;;;10.66;100.00
23170;BME280;11753;43.144;24.714;2023-05-11T00:44:51;99881.19;;;10.70;100.00
23170;BME280;11753;43.144;24.714;2023-05-11T00:45:52;99882.56;;;10.74;100.00
23170;BME280;11753;43.144;24.714;2023-05-11T00:46:53;99883.97;;;10.68;100.00
23170;BME280;11753;43.144;24.714;2023-05-11T00:47:54;99881.66;;;10.83;100.00
23170;BME280;11753;43.144;24.714;2023-05-11T00:48:55;99883.03;;;10.87;100.00
23170;BME280;11753;43.144;24.714;2023-05-11T00:49:56;99879.53;;;10.69;100.00
23170;BME280;11753;43.144;24.714;2023-05-11T00:50:58;99881.97;;;10.25;100.00
23170;BME280;11753;43.144;24.714;2023-05-11T00:51:59;99877.44;;;10.08;100.00
23170;BME280;11753;43.144;24.714;2023-05-11T00:53:02;99879.25;;;9.98;100.00
23170;BME280;11753;43.144;24.714;2023-05-11T00:54:06;99883.28;;;10.02;100.00
23170;BME280;11753;43.144;24.714;2023-05-11T00:55:13;99878.66;;;10.23;100.00
23170;BME280;11753;43.144;24.714;2023-05-11T00:56:14;99880.81;;;10.37;100.00
23170;BME280;11753;43.144;24.714;2023-05-11T00:57:15;99875.94;;;10.42;100.00
23170;BME280;11753;43.144;24.714;2023-05-11T00:58:17;99882.16;;;10.41;100.00
23170;BME280;11753;43.144;24.714;2023-05-11T00:59:17;99876.38;;;10.38;100.00
23170;BME280;11753;43.144;24.714;2023-05-11T01:00:18;99880.56;;;10.31;100.00
23170;BME280;11753;43.144;24.714;2023-05-11T01:01:19;99870.78;;;10.23;100.00
23170;BME280;11753;43.144;24.714;2023-05-11T01:02:20;99871.16;;;10.28;100.00
23170;BME280;11753;43.144;24.714;2023-05-11T01:03:20;99875.84;;;10.34;100.00
23170;BME280;11753;43.144;24.714;2023-05-11T01:04:21;99876.91;;;10.41;100.00
23170;BME280;11753;43.144;24.714;2023-05-11T01:05:25;99876.31;;;10.47;100.00
23170;BME280;11753;43.144;24.714;2023-05-11T01:06:36;99885.97;;;10.57;100.00
23170;BME280;11753;43.144;24.714;2023-05-11T01:08:04;99880.50;;;10.68;100.00
23170;BME280;11753;43.144;24.714;2023-05-11T01:09:33;99876.50;;;10.64;100.00
23170;BME280;11753;43.144;24.714;2023-05-11T01:10:56;99878.47;;;10.62;100.00
23170;BME280;11753;43.144;24.714;2023-05-11T01:13:25;99881.97;;;10.25;100.00
23170;BME280;11753;43.144;24.714;2023-05-11T01:14:38;99891.38;;;10.28;100.00
23170;BME280;11753;43.144;24.714;2023-05-11T01:15:45;99882.22;;;10.32;100.00
23170;BME280;11753;43.144;24.714;2023-05-11T01:16:55;99875.09;;;10.42;100.00
23170;BME280;11753;43.144;24.714;2023-05-11T01:18:18;99875.72;;;10.26;100.00
23170;BME280;11753;43.144;24.714;2023-05-11T01:20:34;99874.84;;;10.35;100.00
23170;BME280;11753;43.144;24.714;2023-05-11T01:21:35;99880.25;;;10.43;100.00
23170;BME280;11753;43.144;24.714;2023-05-11T01:24:36;99870.47;;;10.54;100.00
23170;BME280;11753;43.144;24.714;2023-05-11T01:30:23;99881.25;;;10.60;100.00
23170;BME280;11753;43.144;24.714;2023-05-11T01:31:30;99878.19;;;10.65;100.00
23170;BME280;11753;43.144;24.714;2023-05-11T01:32:32;99884.13;;;10.67;100.00
23170;BME280;11753;43.144;24.714;2023-05-11T01:33:37;99878.72;;;10.68;100.00
23170;BME280;11753;43.144;24.714;2023-05-11T01:34:40;99883.81;;;10.70;100.00
23170;BME280;11753;43.144;24.714;2023-05-11T01:35:57;99870.47;;;10.54;100.00
23170;BME280;11753;43.144;24.714;2023-05-11T01:37:08;99877.22;;;10.66;100.00
23170;BME280;11753;43.144;24.714;2023-05-11T01:38:12;99878.78;;;10.59;100.00
23170;BME280;11753;43.144;24.714;2023-05-11T01:39:16;99878.72;;;10.41;100.00
23170;BME280;11753;43.144;24.714;2023-05-11T01:40:25;99873.91;;;10.36;100.00
23170;BME280;11753;43.144;24.714;2023-05-11T01:41:28;99881.41;;;10.31;100.00
23170;BME280;11753;43.144;24.714;2023-05-11T01:42:41;99885.81;;;10.21;100.00
23170;BME280;11753;43.144;24.714;2023-05-11T01:43:48;99882.66;;;10.27;100.00
23170;BME280;11753;43.144;24.714;2023-05-11T01:44:54;99881.47;;;9.92;100.00
23170;BME280;11753;43.144;24.714;2023-05-11T01:45:59;99884.00;;;9.94;100.00
23170;BME280;11753;43.144;24.714;2023-05-11T01:47:01;99879.94;;;10.00;100.00
23170;BME280;11753;43.144;24.714;2023-05-11T01:48:05;99882.34;;;9.83;100.00
23170;BME280;11753;43.144;24.714;2023-05-11T01:49:06;99884.13;;;9.92;100.00
23170;BME280;11753;43.144;24.714;2023-05-11T01:50:08;99887.84;;;10.00;100.00
23170;BME280;11753;43.144;24.714;2023-05-11T01:51:10;99888.34;;;10.13;100.00
23170;BME280;11753;43.144;24.714;2023-05-11T01:52:13;99880.19;;;10.16;100.00
23170;BME280;11753;43.144;24.714;2023-05-11T01:53:16;99875.97;;;9.96;100.00
23170;BME280;11753;43.144;24.714;2023-05-11T01:54:18;99879.56;;;9.95;100.00
23170;BME280;11753;43.144;24.714;2023-05-11T01:55:21;99886.22;;;9.89;100.00
23170;BME280;11753;43.144;24.714;2023-05-11T01:56:24;99882.75;;;9.88;100.00
23170;BME280;11753;43.144;24.714;2023-05-11T01:57:26;99876.22;;;9.92;100.00
23170;BME280;11753;43.144;24.714;2023-05-11T01:58:29;99877.47;;;9.98;100.00
23170;BME280;11753;43.144;24.714;2023-05-11T01:59:31;99877.59;;;9.97;100.00
23170;BME280;11753;43.144;24.714;2023-05-11T02:00:33;99881.31;;;10.04;100.00
23170;BME280;11753;43.144;24.714;2023-05-11T02:01:35;99891.94;;;10.12;100.00
23170;BME280;11753;43.144;24.714;2023-05-11T02:02:38;99880.19;;;10.06;100.00
23170;BME280;11753;43.144;24.714;2023-05-11T02:03:41;99883.94;;;10.23;100.00
23170;BME280;11753;43.144;24.714;2023-05-11T02:04:43;99880.56;;;10.31;100.00
23170;BME280;11753;43.144;24.714;2023-05-11T02:05:45;99885.00;;;10.30;100.00
23170;BME280;11753;43.144;24.714;2023-05-11T02:06:48;99873.91;;;10.36;100.00
23170;BME280;11753;43.144;24.714;2023-05-11T02:07:51;99883.34;;;10.29;100.00
23170;BME280;11753;43.144;24.714;2023-05-11T02:08:55;99886.41;;;10.25;100.00
23170;BME280;11753;43.144;24.714;2023-05-11T02:09:58;99889.72;;;10.17;100.00
23170;BME280;11753;43.144;24.714;2023-05-11T02:11:00;99894.47;;;10.04;100.00
23170;BME280;11753;43.144;24.714;2023-05-11T02:12:03;99891.63;;;9.87;100.00
23170;BME280;11753;43.144;24.714;2023-05-11T02:13:05;99881.78;;;9.89;100.00
23170;BME280;11753;43.144;24.714;2023-05-11T02:14:08;99890.38;;;9.82;100.00
23170;BME280;11753;43.144;24.714;2023-05-11T02:15:10;99890.56;;;9.51;100.00
23170;BME280;11753;43.144;24.714;2023-05-11T02:16:13;99885.56;;;9.68;100.00
23170;BME280;11753;43.144;24.714;2023-05-11T02:17:15;99892.59;;;9.77;100.00
23170;BME280;11753;43.144;24.714;2023-05-11T02:18:19;99876.44;;;9.62;100.00
23170;BME280;11753;43.144;24.714;2023-05-11T02:19:20;99880.03;;;9.61;100.00
23170;BME280;11753;43.144;24.714;2023-05-11T02:20:22;99889.44;;;9.73;100.00
23170;BME280;11753;43.144;24.714;2023-05-11T02:21:26;99885.41;;;9.69;100.00
23170;BME280;11753;43.144;24.714;2023-05-11T02:22:28;99880.72;;;9.73;100.00
23170;BME280;11753;43.144;24.714;2023-05-11T02:23:31;99878.91;;;9.73;100.00
23170;BME280;11753;43.144;24.714;2023-05-11T02:24:34;99876.00;;;9.86;100.00
23170;BME280;11753;43.144;24.714;2023-05-11T02:25:36;99884.25;;;9.91;100.00
23170;BME280;11753;43.144;24.714;2023-05-11T02:26:39;99873.19;;;9.97;100.00
23170;BME280;11753;43.144;24.714;2023-05-11T02:27:40;99872.06;;;10.00;100.00
23170;BME280;11753;43.144;24.714;2023-05-11T02:28:41;99873.00;;;10.08;100.00
23170;BME280;11753;43.144;24.714;2023-05-11T02:29:43;99875.19;;;10.13;100.00
23170;BME280;11753;43.144;24.714;2023-05-11T02:30:46;99873.66;;;10.20;100.00
23170;BME280;11753;43.144;24.714;2023-05-11T02:31:51;99875.06;;;10.24;100.00
23170;BME280;11753;43.144;24.714;2023-05-11T02:32:56;99871.84;;;10.30;100.00
23170;BME280;11753;43.144;24.714;2023-05-11T02:34:05;99878.38;;;10.16;100.00
23170;BME280;11753;43.144;24.714;2023-05-11T02:35:12;99873.94;;;10.17;100.00
23170;BME280;11753;43.144;24.714;2023-05-11T02:36:20;99876.56;;;10.17;100.00
23170;BME280;11753;43.144;24.714;2023-05-11T02:37:23;99875.06;;;10.24;100.00
23170;BME280;11753;43.144;24.714;2023-05-11T02:38:30;99863.94;;;10.20;100.00
23170;BME280;11753;43.144;24.714;2023-05-11T02:39:34;99870.63;;;10.15;100.00
23170;BME280;11753;43.144;24.714;2023-05-11T02:40:41;99867.41;;;10.21;100.00
23170;BME280;11753;43.144;24.714;2023-05-11T02:41:43;99872.44;;;10.14;100.00
23170;BME280;11753;43.144;24.714;2023-05-11T02:42:48;99872.72;;;10.11;100.00
23170;BME280;11753;43.144;24.714;2023-05-11T02:43:54;99872.28;;;10.16;100.00
23170;BME280;11753;43.144;24.714;2023-05-11T02:45:04;99877.97;;;10.11;100.00
23170;BME280;11753;43.144;24.714;2023-05-11T02:46:10;99877.16;;;10.11;100.00
23170;BME280;11753;43.144;24.714;2023-05-11T02:47:14;99881.28;;;10.13;100.00
23170;BME280;11753;43.144;24.714;2023-05-11T02:48:25;99873.94;;;10.27;100.00
23170;BME280;11753;43.144;24.714;2023-05-11T02:49:28;99878.91;;;10.30;100.00
23170;BME280;11753;43.144;24.714;2023-05-11T02:50:30;99879.19;;;10.27;100.00
23170;BME280;11753;43.144;24.714;2023-05-11T02:51:36;99882.09;;;10.14;100.00
23170;BME280;11753;43.144;24.714;2023-05-11T02:52:44;99872.66;;;9.84;100.00
23170;BME280;11753;43.144;24.714;2023-05-11T02:53:48;99875.44;;;9.82;100.00
23170;BME280;11753;43.144;24.714;2023-05-11T02:54:51;99876.84;;;9.67;100.00
23170;BME280;11753;43.144;24.714;2023-05-11T02:55:56;99881.56;;;9.73;100.00
23170;BME280;11753;43.144;24.714;2023-05-11T02:56:58;99881.66;;;9.81;100.00
23170;BME280;11753;43.144;24.714;2023-05-11T02:57:59;99879.31;;;9.88;100.00
23170;BME280;11753;43.144;24.714;2023-05-11T02:59:01;99880.91;;;9.99;100.00
23170;BME280;11753;43.144;24.714;2023-05-11T03:00:03;99871.94;;;10.01;100.00
23170;BME280;11753;43.144;24.714;2023-05-11T03:01:07;99879.25;;;10.07;100.00
23170;BME280;11753;43.144;24.714;2023-05-11T03:02:08;99876.84;;;10.14;100.00
23170;BME280;11753;43.144;24.714;2023-05-11T03:03:09;99881.16;;;10.15;100.00
23170;BME280;11753;43.144;24.714;2023-05-11T03:04:10;99872.81;;;10.19;100.00
23170;BME280;11753;43.144;24.714;2023-05-11T03:05:10;99883.94;;;10.23;100.00
23170;BME280;11753;43.144;24.714;2023-05-11T03:06:11;99881.16;;;10.25;100.00
23170;BME280;11753;43.144;24.714;2023-05-11T03:07:12;99875.59;;;10.28;100.00
23170;BME280;11753;43.144;24.714;2023-05-11T03:08:12;99880.84;;;10.28;100.00
23170;BME280;11753;43.144;24.714;2023-05-11T03:09:13;99882.38;;;10.30;100.00
23170;BME280;11753;43.144;24.714;2023-05-11T03:10:14;99876.41;;;10.28;100.00
23170;BME280;11753;43.144;24.714;2023-05-11T03:11:15;99891.78;;;10.33;100.00
23170;BME280;11753;43.144;24.714;2023-05-11T03:12:17;99869.78;;;10.24;100.00
23170;BME280;11753;43.144;24.714;2023-05-11T03:13:21;99881.91;;;10.35;100.00
23170;BME280;11753;43.144;24.714;2023-05-11T03:14:22;99887.84;;;10.46;100.00
23170;BME280;11753;43.144;24.714;2023-05-11T03:15:24;99884.53;;;10.44;100.00
23170;BME280;11753;43.144;24.714;2023-05-11T03:16:26;99884.97;;;10.40;100.00
23170;BME280;11753;43.144;24.714;2023-05-11T03:17:29;99885.63;;;10.42;100.00
23170;BME280;11753;43.144;24.714;2023-05-11T03:18:31;99883.56;;;10.45;100.00
23170;BME280;11753;43.144;24.714;2023-05-11T03:19:37;99881.91;;;10.44;100.00
23170;BME280;11753;43.144;24.714;2023-05-11T03:20:40;99880.66;;;10.39;100.00
23170;BME280;11753;43.144;24.714;2023-05-11T03:21:43;99881.09;;;10.34;100.00
23170;BME280;11753;43.144;24.714;2023-05-11T03:22:45;99873.25;;;10.25;100.00
23170;BME280;11753;43.144;24.714;2023-05-11T03:23:47;99887.78;;;10.19;100.00
23170;BME280;11753;43.144;24.714;2023-05-11T03:24:50;99887.78;;;10.19;100.00
23170;BME280;11753;43.144;24.714;2023-05-11T03:25:52;99878.66;;;10.23;100.00
23170;BME280;11753;43.144;24.714;2023-05-11T03:26:54;99890.25;;;10.20;100.00
23170;BME280;11753;43.144;24.714;2023-05-11T03:27:56;99892.88;;;10.20;100.00
23170;BME280;11753;43.144;24.714;2023-05-11T03:28:59;99886.94;;;10.28;100.00
23170;BME280;11753;43.144;24.714;2023-05-11T03:30:08;99889.44;;;10.30;100.00
23170;BME280;11753;43.144;24.714;2023-05-11T03:31:10;99888.88;;;10.26;100.00
23170;BME280;11753;43.144;24.714;2023-05-11T03:32:12;99893.81;;;10.39;100.00
23170;BME280;11753;43.144;24.714;2023-05-11T03:33:13;99897.25;;;10.02;100.00
23170;BME280;11753;43.144;24.714;2023-05-11T03:34:14;99887.34;;;9.86;100.00
23170;BME280;11753;43.144;24.714;2023-05-11T03:35:15;99893.69;;;9.93;100.00
23170;BME280;11753;43.144;24.714;2023-05-11T03:36:16;99897.78;;;10.06;100.00
23170;BME280;11753;43.144;24.714;2023-05-11T03:37:18;99890.56;;;10.17;100.00
23170;BME280;11753;43.144;24.714;2023-05-11T03:38:21;99890.59;;;10.08;100.00
23170;BME280;11753;43.144;24.714;2023-05-11T03:39:24;99892.53;;;10.06;100.00
23170;BME280;11753;43.144;24.714;2023-05-11T03:40:27;99894.31;;;10.15;100.00
23170;BME280;11753;43.144;24.714;2023-05-11T03:41:33;99894.00;;;10.18;100.00
23170;BME280;11753;43.144;24.714;2023-05-11T03:42:35;99898.16;;;10.30;100.00
23170;BME280;11753;43.144;24.714;2023-05-11T03:43:37;99898.25;;;10.38;99.85
23170;BME280;11753;43.144;24.714;2023-05-11T03:44:42;99889.38;;;10.39;99.43
23170;BME280;11753;43.144;24.714;2023-05-11T03:45:46;99891.91;;;10.31;99.45
23170;BME280;11753;43.144;24.714;2023-05-11T03:46:47;99899.81;;;10.31;99.82
23170;BME280;11753;43.144;24.714;2023-05-11T03:47:51;99898.84;;;10.32;99.90
23170;BME280;11753;43.144;24.714;2023-05-11T03:48:53;99906.34;;;10.27;100.00
23170;BME280;11753;43.144;24.714;2023-05-11T03:49:55;99895.13;;;10.25;100.00
23170;BME280;11753;43.144;24.714;2023-05-11T03:50:57;99898.44;;;10.27;100.00
23170;BME280;11753;43.144;24.714;2023-05-11T03:51:58;99903.94;;;10.34;100.00
23170;BME280;11753;43.144;24.714;2023-05-11T03:53:00;99903.81;;;10.35;100.00
23170;BME280;11753;43.144;24.714;2023-05-11T03:54:01;99904.19;;;10.40;100.00
23170;BME280;11753;43.144;24.714;2023-05-11T03:55:03;99894.97;;;10.36;100.00
23170;BME280;11753;43.144;24.714;2023-05-11T03:56:04;99903.78;;;10.45;100.00
23170;BME280;11753;43.144;24.714;2023-05-11T03:57:09;99905.19;;;10.39;100.00
23170;BME280;11753;43.144;24.714;2023-05-11T03:58:11;99900.91;;;10.38;100.00
23170;BME280;11753;43.144;24.714;2023-05-11T03:59:15;99906.56;;;10.43;100.00
23170;BME280;11753;43.144;24.714;2023-05-11T04:00:17;99908.78;;;10.38;100.00
23170;BME280;11753;43.144;24.714;2023-05-11T04:01:18;99905.75;;;10.43;100.00
23170;BME280;11753;43.144;24.714;2023-05-11T04:02:19;99915.13;;;10.45;100.00
23170;BME280;11753;43.144;24.714;2023-05-11T04:03:21;99925.94;;;10.42;100.00
23170;BME280;11753;43.144;24.714;2023-05-11T04:04:31;99919.72;;;10.43;100.00
23170;BME280;11753;43.144;24.714;2023-05-11T04:05:32;99915.13;;;10.45;100.00
23170;BME280;11753;43.144;24.714;2023-05-11T04:06:33;99917.47;;;10.48;100.00
23170;BME280;11753;43.144;24.714;2023-05-11T04:07:35;99918.16;;;10.51;100.00
23170;BME280;11753;43.144;24.714;2023-05-11T04:08:37;99912.09;;;10.40;100.00
23170;BME280;11753;43.144;24.714;2023-05-11T04:09:38;99914.78;;;10.31;100.00
23170;BME280;11753;43.144;24.714;2023-05-11T04:10:39;99912.88;;;10.23;100.00
23170;BME280;11753;43.144;24.714;2023-05-11T04:11:40;99914.53;;;10.24;100.00
23170;BME280;11753;43.144;24.714;2023-05-11T04:12:41;99907.59;;;10.23;100.00
23170;BME280;11753;43.144;24.714;2023-05-11T04:13:42;99905.22;;;10.20;100.00
23170;BME280;11753;43.144;24.714;2023-05-11T04:14:43;99903.03;;;10.25;100.00
23170;BME280;11753;43.144;24.714;2023-05-11T04:15:44;99911.91;;;10.24;100.00
23170;BME280;11753;43.144;24.714;2023-05-11T04:16:45;99901.47;;;10.32;100.00
23170;BME280;11753;43.144;24.714;2023-05-11T04:17:46;99899.72;;;10.23;100.00
23170;BME280;11753;43.144;24.714;2023-05-11T04:18:47;99905.50;;;10.27;100.00
23170;BME280;11753;43.144;24.714;2023-05-11T04:19:48;99902.44;;;10.31;100.00
23170;BME280;11753;43.144;24.714;2023-05-11T04:20:49;99903.38;;;10.40;100.00
23170;BME280;11753;43.144;24.714;2023-05-11T04:21:50;99896.59;;;10.37;100.00
23170;BME280;11753;43.144;24.714;2023-05-11T04:22:51;99903.09;;;10.43;100.00
23170;BME280;11753;43.144;24.714;2023-05-11T04:23:52;99901.56;;;10.40;100.00
23170;BME280;11753;43.144;24.714;2023-05-11T04:24:53;99903.94;;;10.43;100.00
23170;BME280;11753;43.144;24.714;2023-05-11T04:25:55;99906.78;;;10.50;100.00
23170;BME280;11753;43.144;24.714;2023-05-11T04:26:56;99905.69;;;10.53;100.00
23170;BME280;11753;43.144;24.714;2023-05-11T04:27:57;99900.41;;;10.53;100.00
23170;BME280;11753;43.144;24.714;2023-05-11T04:28:58;99906.19;;;10.56;100.00
23170;BME280;11753;43.144;24.714;2023-05-11T04:29:59;99909.00;;;10.55;100.00
23170;BME280;11753;43.144;24.714;2023-05-11T04:31:00;99902.06;;;10.54;100.00
23170;BME280;11753;43.144;24.714;2023-05-11T04:32:01;99911.03;;;10.61;100.00
23170;BME280;11753;43.144;24.714;2023-05-11T04:33:02;99904.13;;;10.60;100.00
23170;BME280;11753;43.144;24.714;2023-05-11T04:34:07;99905.78;;;10.61;100.00
23170;BME280;11753;43.144;24.714;2023-05-11T04:35:08;99910.38;;;10.59;100.00
23170;BME280;11753;43.144;24.714;2023-05-11T04:36:09;99918.34;;;10.67;100.00
23170;BME280;11753;43.144;24.714;2023-05-11T04:37:10;99919.69;;;10.71;100.00
23170;BME280;11753;43.144;24.714;2023-05-11T04:38:11;99929.81;;;10.75;99.95
23170;BME280;11753;43.144;24.714;2023-05-11T04:39:12;99925.47;;;10.84;99.03
23170;BME280;11753;43.144;24.714;2023-05-11T04:40:13;99928.56;;;10.80;98.93
23170;BME280;11753;43.144;24.714;2023-05-11T04:41:14;99936.88;;;10.75;99.50
23170;BME280;11753;43.144;24.714;2023-05-11T04:42:15;99937.41;;;10.79;99.59
23170;BME280;11753;43.144;24.714;2023-05-11T04:43:17;99934.91;;;10.77;100.00
23170;BME280;11753;43.144;24.714;2023-05-11T04:44:18;99931.03;;;10.81;99.95
23170;BME280;11753;43.144;24.714;2023-05-11T04:45:19;99938.63;;;10.57;100.00
23170;BME280;11753;43.144;24.714;2023-05-11T04:46:20;99928.50;;;10.62;100.00
23170;BME280;11753;43.144;24.714;2023-05-11T04:47:22;99936.69;;;10.59;100.00
23170;BME280;11753;43.144;24.714;2023-05-11T04:48:23;99931.78;;;10.64;100.00
23170;BME280;11753;43.144;24.714;2023-05-11T04:49:25;99919.81;;;10.52;100.00
23170;BME280;11753;43.144;24.714;2023-05-11T04:50:26;99930.69;;;10.66;99.89
23170;BME280;11753;43.144;24.714;2023-05-11T04:51:28;99920.75;;;10.60;100.00
23170;BME280;11753;43.144;24.714;2023-05-11T04:52:28;99926.34;;;10.75;100.00
23170;BME280;11753;43.144;24.714;2023-05-11T04:53:29;99933.09;;;10.87;98.04
23170;BME280;11753;43.144;24.714;2023-05-11T04:54:29;99930.13;;;10.90;96.91
23170;BME280;11753;43.144;24.714;2023-05-11T04:55:30;99940.16;;;10.87;96.56
23170;BME280;11753;43.144;24.714;2023-05-11T04:56:31;99934.44;;;10.91;96.34
23170;BME280;11753;43.144;24.714;2023-05-11T04:57:31;99925.47;;;10.84;96.39
23170;BME280;11753;43.144;24.714;2023-05-11T04:58:32;99933.66;;;10.81;96.91
23170;BME280;11753;43.144;24.714;2023-05-11T04:59:33;99936.56;;;10.78;97.38
23170;BME280;11753;43.144;24.714;2023-05-11T05:00:33;99934.78;;;10.79;97.14
23170;BME280;11753;43.144;24.714;2023-05-11T05:01:35;99929.06;;;10.83;96.65
23170;BME280;11753;43.144;24.714;2023-05-11T05:02:36;99930.97;;;10.91;96.41
23170;BME280;11753;43.144;24.714;2023-05-11T05:03:37;99929.63;;;10.87;96.16
23170;BME280;11753;43.144;24.714;2023-05-11T05:04:38;99934.81;;;10.96;94.41
23170;BME280;11753;43.144;24.714;2023-05-11T05:05:39;99939.78;;;10.99;93.35
23170;BME280;11753;43.144;24.714;2023-05-11T05:06:40;99932.28;;;11.05;93.18
23170;BME280;11753;43.144;24.714;2023-05-11T05:07:41;99935.44;;;11.08;92.55
23170;BME280;11753;43.144;24.714;2023-05-11T05:08:41;99923.69;;;11.02;92.97
23170;BME280;11753;43.144;24.714;2023-05-11T05:09:42;99919.50;;;11.10;93.16
23170;BME280;11753;43.144;24.714;2023-05-11T05:10:43;99932.00;;;11.25;92.05
23170;BME280;11753;43.144;24.714;2023-05-11T05:11:43;99924.63;;;11.29;90.44
23170;BME280;11753;43.144;24.714;2023-05-11T05:12:44;99939.31;;;11.32;89.63
23170;BME280;11753;43.144;24.714;2023-05-11T05:13:45;99932.53;;;11.29;89.44
23170;BME280;11753;43.144;24.714;2023-05-11T05:14:45;99935.44;;;11.26;90.29
23170;BME280;11753;43.144;24.714;2023-05-11T05:15:46;99936.22;;;11.36;89.69
23170;BME280;11753;43.144;24.714;2023-05-11T05:16:48;99932.88;;;11.34;89.93
23170;BME280;11753;43.144;24.714;2023-05-11T05:17:49;99931.78;;;11.37;90.32
23170;BME280;11753;43.144;24.714;2023-05-11T05:18:49;99932.28;;;11.40;90.45
23170;BME280;11753;43.144;24.714;2023-05-11T05:19:50;99939.16;;;11.51;90.63
23170;BME280;11753;43.144;24.714;2023-05-11T05:20:51;99939.91;;;11.61;90.15
23170;BME280;11753;43.144;24.714;2023-05-11T05:21:52;99938.75;;;11.64;88.60
23170;BME280;11753;43.144;24.714;2023-05-11T05:22:52;99942.97;;;11.74;87.08
23170;BME280;11753;43.144;24.714;2023-05-11T05:23:54;99937.63;;;11.66;85.89
23170;BME280;11753;43.144;24.714;2023-05-11T05:24:55;99935.44;;;11.62;86.10
23170;BME280;11753;43.144;24.714;2023-05-11T05:25:57;99942.16;;;11.74;86.05
23170;BME280;11753;43.144;24.714;2023-05-11T05:26:58;99939.75;;;11.80;85.44
23170;BME280;11753;43.144;24.714;2023-05-11T05:27:59;99940.13;;;11.68;85.71
23170;BME280;11753;43.144;24.714;2023-05-11T05:29:00;99944.25;;;11.70;86.32
23170;BME280;11753;43.144;24.714;2023-05-11T05:30:01;99935.66;;;11.68;87.31
23170;BME280;11753;43.144;24.714;2023-05-11T05:31:02;99936.34;;;11.70;87.78
23170;BME280;11753;43.144;24.714;2023-05-11T05:32:03;99944.47;;;11.77;88.14
23170;BME280;11753;43.144;24.714;2023-05-11T05:33:04;99932.19;;;11.85;88.20
23170;BME280;11753;43.144;24.714;2023-05-11T05:34:05;99947.28;;;11.93;88.47